createdAt,value
2018-04-26T00:00:51.667Z,100674.44
2018-04-26T00:03:26.554Z,100673.27
2018-04-26T00:06:01.080Z,100669.89
2018-04-26T00:08:35.987Z,100670.59
2018-04-26T00:11:10.743Z,100666.44
2018-04-26T00:13:45.690Z,100666.44
2018-04-26T00:16:20.556Z,100664.95
2018-04-26T00:18:55.628Z,100659.58
2018-04-26T00:21:30.807Z,100665.59
2018-04-26T00:24:05.891Z,100669.45
2018-04-26T00:26:41.074Z,100657.63
2018-04-26T00:29:16.129Z,100652.44
2018-04-26T00:31:51.106Z,100655.50
2018-04-26T00:34:25.920Z,100651.80
2018-04-26T00:37:01.004Z,100652.06
2018-04-26T00:39:36.286Z,100653.20
2018-04-26T00:42:11.462Z,100647.27
2018-04-26T00:44:46.266Z,100645.84
2018-04-26T00:47:21.051Z,100647.83
2018-04-26T00:49:56.021Z,100647.22
2018-04-26T00:52:31.098Z,100648.80
2018-04-26T00:55:05.879Z,100641.65
2018-04-26T00:57:40.972Z,100644.27
2018-04-26T01:00:15.760Z,100647.52
2018-04-26T01:02:50.647Z,100647.98
2018-04-26T01:05:25.636Z,100647.45
2018-04-26T01:08:00.555Z,100644.97
2018-04-26T01:10:35.290Z,100651.22
2018-04-26T01:13:10.403Z,100645.92
2018-04-26T01:15:45.382Z,100650.91
2018-04-26T01:18:20.495Z,100653.07
2018-04-26T01:20:55.498Z,100653.27
2018-04-26T01:23:30.306Z,100659.98
2018-04-26T01:26:05.312Z,100655.30
2018-04-26T01:28:40.482Z,100651.59
2018-04-26T01:31:15.635Z,100656.95
2018-04-26T01:33:50.818Z,100654.95
2018-04-26T01:36:37.128Z,100658.27
2018-04-26T01:39:11.990Z,100658.77
2018-04-26T01:41:46.778Z,100646.56
2018-04-26T01:44:21.850Z,100646.23
2018-04-26T01:46:56.830Z,100646.62
2018-04-26T01:49:32.058Z,100641.08
2018-04-26T01:52:07.146Z,100652.52
2018-04-26T01:54:41.990Z,100644.58
2018-04-26T01:57:16.978Z,100641.79
2018-04-26T01:59:52.003Z,100643.65
2018-04-26T02:02:26.884Z,100638.97
2018-04-26T02:05:01.780Z,100640.51
2018-04-26T02:07:36.666Z,100641.79
2018-04-26T02:10:11.623Z,100651.10
2018-04-26T02:12:46.941Z,100666.22
2018-04-26T02:15:21.951Z,100659.17
2018-04-26T02:17:57.155Z,100648.23
2018-04-26T02:20:32.043Z,100652.45
2018-04-26T02:23:06.806Z,100644.14
2018-04-26T02:25:41.984Z,100642.86
2018-04-26T02:28:17.062Z,100639.16
2018-04-26T02:30:52.138Z,100634.36
2018-04-26T02:33:27.127Z,100638.68
2018-04-26T02:36:02.326Z,100637.17
2018-04-26T02:38:37.412Z,100630.52
2018-04-26T02:41:12.410Z,100635.30
2018-04-26T02:43:47.423Z,100630.02
2018-04-26T02:46:22.511Z,100631.30
2018-04-26T02:48:57.423Z,100635.63
2018-04-26T02:51:32.277Z,100639.33
2018-04-26T02:54:07.463Z,100634.61
2018-04-26T02:56:42.385Z,100639.03
2018-04-26T02:59:17.063Z,100637.44
2018-04-26T03:01:52.077Z,100634.76
2018-04-26T03:04:27.039Z,100633.16
2018-04-26T03:07:02.256Z,100627.64
2018-04-26T03:09:37.131Z,100636.73
2018-04-26T03:12:12.118Z,100633.16
2018-04-26T03:14:47.115Z,100633.49
2018-04-26T03:17:21.890Z,100635.27
2018-04-26T03:19:56.762Z,100634.77
2018-04-26T03:22:31.835Z,100633.05
2018-04-26T03:25:06.826Z,100630.70
2018-04-26T03:27:41.906Z,100635.82
2018-04-26T03:30:16.910Z,100636.78
2018-04-26T03:32:51.695Z,100633.78
2018-04-26T03:35:26.593Z,100629.98
2018-04-26T03:38:01.503Z,100635.17
2018-04-26T03:40:36.695Z,100646.56
2018-04-26T03:43:11.478Z,100638.19
2018-04-26T03:45:45.899Z,100643.68
2018-04-26T03:48:21.034Z,100631.61
2018-04-26T03:50:56.126Z,100639.87
2018-04-26T03:53:31.126Z,100636.34
2018-04-26T03:56:06.211Z,100638.27
2018-04-26T03:58:40.796Z,100634.50
2018-04-26T04:01:27.190Z,100634.56
2018-04-26T04:04:12.935Z,100637.95
2018-04-26T04:06:47.517Z,100641.52
2018-04-26T04:09:22.611Z,100641.78
2018-04-26T04:11:57.497Z,100646.00
2018-04-26T04:14:32.276Z,100657.82
2018-04-26T04:17:07.254Z,100655.08
2018-04-26T04:19:42.039Z,100658.27
2018-04-26T04:22:17.016Z,100665.23
2018-04-26T04:24:51.947Z,100671.67
2018-04-26T04:27:26.714Z,100668.92
2018-04-26T04:30:01.596Z,100666.06
2018-04-26T04:32:36.479Z,100670.00
2018-04-26T04:35:11.529Z,100673.52
2018-04-26T04:37:46.857Z,100673.31
2018-04-26T04:40:21.740Z,100679.38
2018-04-26T04:42:56.740Z,100666.22
2018-04-26T04:45:31.610Z,100669.10
2018-04-26T04:48:06.702Z,100667.23
2018-04-26T04:50:41.722Z,100672.97
2018-04-26T04:53:16.373Z,100667.94
2018-04-26T04:55:51.375Z,100672.34
2018-04-26T04:58:26.367Z,100672.07
2018-04-26T05:01:01.181Z,100675.10
2018-04-26T05:03:36.377Z,100674.45
2018-04-26T05:06:11.490Z,100679.62
2018-04-26T05:08:46.276Z,100680.06
2018-04-26T05:11:21.238Z,100681.34
2018-04-26T05:13:56.121Z,100680.97
2018-04-26T05:16:31.412Z,100689.23
2018-04-26T05:19:06.286Z,100691.54
2018-04-26T05:21:40.926Z,100707.44
2018-04-26T05:24:15.893Z,100710.77
2018-04-26T05:26:50.816Z,100715.99
2018-04-26T05:29:25.701Z,100712.60
2018-04-26T05:32:00.665Z,100723.16
2018-04-26T05:34:35.784Z,100723.48
2018-04-26T05:37:10.660Z,100729.22
2018-04-26T05:39:45.945Z,100729.08
2018-04-26T05:42:20.985Z,100727.19
2018-04-26T05:44:55.875Z,100738.63
2018-04-26T05:47:30.795Z,100740.69
2018-04-26T05:50:05.295Z,100743.48
2018-04-26T05:52:40.582Z,100745.99
2018-04-26T05:55:15.467Z,100744.02
2018-04-26T05:57:50.302Z,100752.70
2018-04-26T06:00:25.177Z,100753.09
2018-04-26T06:03:00.163Z,100750.24
2018-04-26T06:05:35.358Z,100749.08
2018-04-26T06:08:10.242Z,100752.09
2018-04-26T06:10:45.250Z,100750.48
2018-04-26T06:13:20.151Z,100753.43
2018-04-26T06:15:55.018Z,100750.11
2018-04-26T06:18:29.806Z,100758.73
2018-04-26T06:21:04.677Z,100759.44
2018-04-26T06:23:39.858Z,100774.05
2018-04-26T06:26:14.968Z,100772.20
2018-04-26T06:28:49.970Z,100773.66
2018-04-26T06:31:24.835Z,100779.43
2018-04-26T06:34:00.027Z,100778.91
2018-04-26T06:36:34.817Z,100781.42
2018-04-26T06:39:09.399Z,100774.84
2018-04-26T06:41:43.874Z,100773.35
2018-04-26T06:44:18.888Z,100771.02
2018-04-26T06:46:53.688Z,100775.76
2018-04-26T06:49:28.894Z,100784.45
2018-04-26T06:52:03.635Z,100782.34
2018-04-26T06:54:38.926Z,100785.81
2018-04-26T06:57:13.801Z,100788.03
2018-04-26T06:59:48.750Z,100795.66
2018-04-26T07:02:23.925Z,100802.57
2018-04-26T07:04:58.739Z,100799.94
2018-04-26T07:07:33.609Z,100813.81
2018-04-26T07:10:08.316Z,100821.70
2018-04-26T07:12:43.385Z,100822.02
2018-04-26T07:15:18.461Z,100819.30
2018-04-26T07:17:53.723Z,100823.21
2018-04-26T07:20:28.715Z,100829.55
2018-04-26T07:23:03.795Z,100831.66
2018-04-26T07:25:38.678Z,100832.81
2018-04-26T07:28:13.663Z,100819.12
2018-04-26T07:30:48.881Z,100838.25
2018-04-26T07:33:23.862Z,100835.11
2018-04-26T07:35:58.843Z,100833.44
2018-04-26T07:38:34.046Z,100838.31
2018-04-26T07:41:09.218Z,100842.93
2018-04-26T07:43:44.197Z,100847.20
2018-04-26T07:46:19.199Z,100848.50
2018-04-26T07:48:54.289Z,100842.48
2018-04-26T07:51:29.306Z,100861.63
2018-04-26T07:54:04.189Z,100866.56
2018-04-26T07:56:39.074Z,100867.32
2018-04-26T07:59:13.950Z,100875.91
2018-04-26T08:01:49.186Z,100877.19
2018-04-26T08:04:24.082Z,100862.34
2018-04-26T08:06:58.978Z,100869.95
2018-04-26T08:09:34.061Z,100875.06
2018-04-26T08:12:08.944Z,100871.48
2018-04-26T08:14:43.922Z,100870.84
2018-04-26T08:17:18.794Z,100874.37
2018-04-26T08:19:53.573Z,100877.18
2018-04-26T08:22:30.562Z,100884.09
2018-04-26T08:25:05.329Z,100889.39
2018-04-26T08:27:40.159Z,100882.42
2018-04-26T08:30:14.708Z,100886.11
2018-04-26T08:32:49.810Z,100901.23
2018-04-26T08:35:24.794Z,100908.45
2018-04-26T08:37:59.734Z,100905.25
2018-04-26T08:40:34.369Z,100919.73
2018-04-26T08:43:09.447Z,100921.98
2018-04-26T08:45:44.234Z,100910.73
2018-04-26T08:48:19.206Z,100907.73
2018-04-26T08:50:54.089Z,100908.34
2018-04-26T08:53:28.529Z,100914.06
2018-04-26T08:56:02.786Z,100915.01
2018-04-26T08:58:37.962Z,100925.37
2018-04-26T09:01:12.969Z,100933.02
2018-04-26T09:03:47.968Z,100925.95
2018-04-26T09:06:22.875Z,100916.32
2018-04-26T09:08:57.758Z,100917.97
2018-04-26T09:11:32.650Z,100917.44
2018-04-26T09:14:07.639Z,100917.59
2018-04-26T09:16:42.191Z,100922.53
2018-04-26T09:19:17.390Z,100919.88
2018-04-26T09:21:52.224Z,100914.31
2018-04-26T09:24:27.521Z,100912.81
2018-04-26T09:27:02.699Z,100909.34
2018-04-26T09:29:37.146Z,100906.09
2018-04-26T09:32:12.434Z,100915.02
2018-04-26T09:34:47.609Z,100918.58
2018-04-26T09:37:22.387Z,100904.34
2018-04-26T09:39:57.498Z,100908.55
2018-04-26T09:42:32.694Z,100905.05
2018-04-26T09:45:07.877Z,100908.18
2018-04-26T09:47:42.749Z,100909.34
2018-04-26T09:50:17.942Z,100907.94
2018-04-26T09:52:52.630Z,100902.14
2018-04-26T09:55:27.772Z,100918.58
2018-04-26T09:58:02.617Z,100915.14
2018-04-26T10:00:42.471Z,100922.94
2018-04-26T10:03:17.347Z,100918.78
2018-04-26T10:05:57.998Z,100922.70
2018-04-26T10:08:33.078Z,100929.45
2018-04-26T10:11:07.927Z,100945.52
2018-04-26T10:13:43.015Z,100976.42
2018-04-26T10:16:17.919Z,100971.68
2018-04-26T10:18:53.090Z,100975.38
2018-04-26T10:21:28.277Z,100956.55
2018-04-26T10:24:03.443Z,100951.47
2018-04-26T10:26:38.332Z,100952.61
2018-04-26T10:29:13.429Z,100948.42
2018-04-26T10:31:48.942Z,100952.13
2018-04-26T10:34:23.926Z,100945.14
2018-04-26T10:36:59.203Z,100938.21
2018-04-26T10:39:34.391Z,100934.98
2018-04-26T10:42:09.087Z,100930.72
2018-04-26T10:44:43.789Z,100923.48
2018-04-26T10:47:18.770Z,100920.14
2018-04-26T10:49:53.530Z,100922.18
2018-04-26T10:52:28.631Z,100924.59
2018-04-26T10:55:03.438Z,100930.57
2018-04-26T10:57:38.245Z,100937.64
2018-04-26T11:00:12.416Z,100940.06
2018-04-26T11:02:47.388Z,100939.30
2018-04-26T11:05:22.474Z,100944.37
2018-04-26T11:07:57.443Z,100939.09
2018-04-26T11:10:32.490Z,100937.27
2018-04-26T11:13:07.719Z,100943.31
2018-04-26T11:15:42.740Z,100940.11
2018-04-26T11:18:17.706Z,100949.52
2018-04-26T11:20:52.499Z,100936.15
2018-04-26T11:23:27.366Z,100935.13
2018-04-26T11:26:02.019Z,100939.59
2018-04-26T11:28:37.002Z,100937.39
2018-04-26T11:31:12.005Z,100930.94
2018-04-26T11:33:47.016Z,100934.72
2018-04-26T11:36:22.011Z,100929.59
2018-04-26T11:38:57.122Z,100921.03
2018-04-26T11:41:32.227Z,100914.25
2018-04-26T11:44:07.224Z,100916.22
2018-04-26T11:46:41.877Z,100911.74
2018-04-26T11:49:16.840Z,100915.82
2018-04-26T11:51:51.615Z,100911.39
2018-04-26T11:54:26.513Z,100918.96
2018-04-26T11:57:01.299Z,100923.24
2018-04-26T11:59:36.318Z,100931.30
2018-04-26T12:02:11.215Z,100935.37
2018-04-26T12:04:46.019Z,100939.77
2018-04-26T12:07:21.019Z,100935.20
2018-04-26T12:09:55.899Z,100946.88
2018-04-26T12:12:30.831Z,100937.55
2018-04-26T12:15:05.810Z,100949.91
2018-04-26T12:17:41.057Z,100941.92
2018-04-26T12:20:16.077Z,100947.17
2018-04-26T12:22:51.185Z,100938.38
2018-04-26T12:25:26.071Z,100934.45
2018-04-26T12:28:01.078Z,100935.80
2018-04-26T12:30:36.078Z,100931.27
2018-04-26T12:33:10.855Z,100929.78
2018-04-26T12:35:45.836Z,100926.51
2018-04-26T12:38:20.711Z,100939.15
2018-04-26T12:40:55.094Z,100974.59
2018-04-26T12:43:30.190Z,100972.66
2018-04-26T12:46:05.383Z,100967.47
2018-04-26T12:48:40.421Z,100973.13
2018-04-26T12:51:15.306Z,100996.30
2018-04-26T12:53:50.278Z,100976.16
2018-04-26T12:56:25.286Z,100990.48
2018-04-26T12:59:00.063Z,100990.09
2018-04-26T13:01:35.038Z,100993.33
2018-04-26T13:04:09.923Z,100989.42
2018-04-26T13:06:44.626Z,100991.03
2018-04-26T13:09:19.599Z,100997.73
2018-04-26T13:11:54.154Z,100999.45
2018-04-26T13:14:29.360Z,101027.88
2018-04-26T13:17:04.466Z,101013.08
2018-04-26T13:19:39.237Z,101013.98
2018-04-26T13:22:14.326Z,101018.61
2018-04-26T13:24:49.370Z,101018.78
2018-04-26T13:27:24.399Z,101010.02
2018-04-26T13:29:59.490Z,101016.40
2018-04-26T13:32:34.294Z,101023.87
2018-04-26T13:35:09.111Z,101008.78
2018-04-26T13:37:43.997Z,101015.30
2018-04-26T13:40:18.754Z,101020.54
2018-04-26T13:42:53.634Z,101009.01
2018-04-26T13:45:28.795Z,101005.38
2018-04-26T13:48:03.887Z,101002.13
2018-04-26T13:50:38.877Z,101004.61
2018-04-26T13:53:13.771Z,101001.28
2018-04-26T13:55:48.655Z,100997.47
2018-04-26T13:58:23.662Z,100990.86
2018-04-26T14:00:58.542Z,100994.77
2018-04-26T14:03:33.313Z,100993.99
2018-04-26T14:06:08.409Z,100993.86
2018-04-26T14:08:43.097Z,101002.70
2018-04-26T14:11:18.098Z,101006.08
2018-04-26T14:13:53.226Z,101003.66
2018-04-26T14:16:28.138Z,100999.34
2018-04-26T14:19:02.954Z,101010.44
2018-04-26T14:21:37.942Z,101011.60
2018-04-26T14:24:13.126Z,101005.30
2018-04-26T14:26:47.803Z,101012.58
2018-04-26T14:29:22.763Z,101022.64
2018-04-26T14:31:57.575Z,101019.87
2018-04-26T14:34:32.858Z,101020.31
2018-04-26T14:37:07.670Z,101017.22
2018-04-26T14:39:42.657Z,101009.52
2018-04-26T14:42:17.746Z,101018.09
2018-04-26T14:44:52.604Z,101010.16
2018-04-26T14:47:27.405Z,101012.27
2018-04-26T14:50:02.300Z,101017.51
2018-04-26T14:52:36.894Z,101005.18
2018-04-26T14:55:11.455Z,101010.96
2018-04-26T14:57:45.942Z,100995.05
2018-04-26T15:00:21.065Z,100993.27
2018-04-26T15:02:56.149Z,100987.25
2018-04-26T15:05:31.362Z,100985.01
2018-04-26T15:08:06.470Z,100987.10
2018-04-26T15:10:40.851Z,100984.52
2018-04-26T15:13:15.747Z,100989.56
2018-04-26T15:15:50.835Z,100991.94
2018-04-26T15:18:25.829Z,100995.36
2018-04-26T15:21:00.641Z,100997.54
2018-04-26T15:23:35.786Z,100993.78
2018-04-26T15:26:10.582Z,100992.16
2018-04-26T15:28:45.502Z,100994.95
2018-04-26T15:31:20.298Z,101001.20
2018-04-26T15:33:55.269Z,101003.33
2018-04-26T15:36:30.257Z,101006.80
2018-04-26T15:39:05.181Z,101005.59
2018-04-26T15:41:39.766Z,101029.08
2018-04-26T15:44:14.844Z,101022.81
2018-04-26T15:46:49.799Z,101024.03
2018-04-26T15:49:24.824Z,101027.41
2018-04-26T15:51:59.709Z,101025.36
2018-04-26T15:54:35.156Z,101029.25
2018-04-26T15:57:26.218Z,101031.86
2018-04-26T16:00:12.332Z,101028.41
2018-04-26T16:03:04.161Z,101021.43
2018-04-26T16:05:49.579Z,101012.27
2018-04-26T16:11:40.853Z,101016.75
2018-04-26T16:14:32.518Z,101016.97
2018-04-26T16:17:32.730Z,101018.61
2018-04-26T16:23:39.062Z,101023.53
2018-04-26T16:26:25.563Z,101027.27
2018-04-26T16:29:17.274Z,101026.80
2018-04-26T16:32:08.810Z,101026.27
2018-04-26T16:38:03.762Z,101033.02
2018-04-26T16:40:38.578Z,101018.94
2018-04-26T16:43:13.096Z,101032.75
2018-04-26T16:45:47.616Z,101028.76
2018-04-26T16:48:22.290Z,101030.92
2018-04-26T16:50:56.803Z,101027.04
2018-04-26T16:53:31.416Z,101027.55
2018-04-26T16:56:05.594Z,101027.95
2018-04-26T16:58:40.386Z,101022.31
2018-04-26T17:01:15.202Z,101029.30
2018-04-26T17:03:49.930Z,101031.27
2018-04-26T17:06:24.429Z,101047.55
2018-04-26T17:08:59.003Z,101062.27
2018-04-26T17:11:33.635Z,101072.20
2018-04-26T17:14:09.137Z,101076.70
2018-04-26T17:16:43.933Z,101099.91
2018-04-26T17:19:18.549Z,101105.47
2018-04-26T17:21:53.063Z,101084.34
2018-04-26T17:24:27.667Z,101074.17
2018-04-26T17:27:02.366Z,101071.16
2018-04-26T17:29:37.092Z,101055.53
2018-04-26T17:32:11.991Z,101067.63
2018-04-26T17:34:47.833Z,101075.61
2018-04-26T17:37:23.003Z,101094.97
2018-04-26T17:39:57.684Z,101111.64
2018-04-26T17:42:32.389Z,101104.92
2018-04-26T17:45:06.907Z,101112.06
2018-04-26T17:47:41.549Z,101110.24
2018-04-26T17:50:16.290Z,101098.77
2018-04-26T17:52:50.921Z,101080.58
2018-04-26T17:55:25.690Z,101091.73
2018-04-26T17:58:00.282Z,101090.44
2018-04-26T18:00:34.994Z,101105.95
2018-04-26T18:03:09.591Z,101107.64
2018-04-26T18:05:44.123Z,101111.33
2018-04-26T18:08:18.719Z,101111.25
2018-04-26T18:10:53.134Z,101116.39
2018-04-26T18:13:27.858Z,101124.20
2018-04-26T18:16:05.084Z,101127.32
2018-04-26T18:18:40.059Z,101130.78
2018-04-26T18:21:15.651Z,101127.64
2018-04-26T18:23:50.851Z,101121.28
2018-04-26T18:26:25.408Z,101128.59
2018-04-26T18:28:59.781Z,101122.00
2018-04-26T18:31:34.678Z,101120.73
2018-04-26T18:34:09.824Z,101125.13
2018-04-26T18:36:44.856Z,101129.55
2018-04-26T18:39:21.867Z,101125.99
2018-04-26T18:41:58.488Z,101128.63
2018-04-26T18:44:33.686Z,101127.05
2018-04-26T18:47:08.207Z,101138.73
2018-04-26T18:49:52.678Z,101138.31
2018-04-26T18:52:30.495Z,101145.23
2018-04-26T18:55:05.604Z,101138.16
2018-04-26T19:00:27.622Z,101153.77
2018-04-26T19:03:02.312Z,101157.75
2018-04-26T19:05:36.893Z,101161.45
2018-04-26T19:08:12.778Z,101172.70
2018-04-26T19:10:47.423Z,101171.47
2018-04-26T19:13:21.795Z,101170.66
2018-04-26T19:15:56.309Z,101178.84
2018-04-26T19:18:30.863Z,101184.42
2018-04-26T19:21:05.399Z,101177.73
2018-04-26T19:23:40.100Z,101182.27
2018-04-26T19:26:15.052Z,101182.33
2018-04-26T19:28:50.104Z,101186.44
2018-04-26T19:31:24.721Z,101187.39
2018-04-26T19:33:59.750Z,101195.02
2018-04-26T19:36:35.108Z,101191.19
2018-04-26T19:39:09.707Z,101194.13
2018-04-26T19:41:44.852Z,101193.61
2018-04-26T19:44:20.203Z,101191.36
2018-04-26T19:46:55.537Z,101193.23
2018-04-26T19:49:30.286Z,101193.23
2018-04-26T19:52:04.854Z,101193.23
2018-04-26T19:54:39.536Z,101185.72
2018-04-26T19:57:14.434Z,101184.89
2018-04-26T19:59:49.121Z,101183.75
2018-04-26T20:02:23.908Z,101182.25
2018-04-26T20:04:58.601Z,101190.52
2018-04-26T20:07:33.434Z,101193.05
2018-04-26T20:10:08.146Z,101191.46
2018-04-26T20:12:43.278Z,101179.89
2018-04-26T20:15:18.262Z,101182.34
2018-04-26T20:17:53.072Z,101179.07
2018-04-26T20:20:27.582Z,101176.66
2018-04-26T20:23:02.131Z,101179.95
2018-04-26T20:25:37.162Z,101172.56
2018-04-26T20:28:12.292Z,101173.66
2018-04-26T20:30:46.891Z,101167.56
2018-04-26T20:33:21.302Z,101173.49
2018-04-26T20:35:55.878Z,101170.04
2018-04-26T20:38:30.487Z,101176.03
2018-04-26T20:41:05.107Z,101177.05
2018-04-26T20:43:39.729Z,101171.58
2018-04-26T20:46:14.017Z,101170.45
2018-04-26T20:48:49.012Z,101173.55
2018-04-26T20:51:23.608Z,101169.86
2018-04-26T20:53:58.129Z,101165.20
2018-04-26T20:56:32.875Z,101170.70
2018-04-26T20:59:08.337Z,101170.41
2018-04-26T21:01:43.018Z,101176.59
2018-04-26T21:04:17.726Z,101179.65
2018-04-26T21:06:52.312Z,101172.72
2018-04-26T21:09:27.110Z,101173.32
2018-04-26T21:12:01.798Z,101175.31
2018-04-26T21:14:36.498Z,101185.99
2018-04-26T21:17:11.078Z,101183.16
2018-04-26T21:19:45.207Z,101189.52
2018-04-26T21:22:20.090Z,101190.66
2018-04-26T21:24:54.819Z,101185.02
2018-04-26T21:27:29.438Z,101185.00
2018-04-26T21:30:03.651Z,101182.80
2018-04-26T21:32:40.263Z,101187.85
2018-04-26T21:35:15.451Z,101194.03
2018-04-26T21:37:50.043Z,101198.22
2018-04-26T21:40:24.636Z,101198.66
2018-04-26T21:42:59.143Z,101196.30
2018-04-26T21:45:33.627Z,101203.98
2018-04-26T21:48:08.322Z,101198.81
2018-04-26T21:50:48.603Z,101195.34
2018-04-26T21:53:28.373Z,101192.89
2018-04-26T21:56:08.915Z,101197.03
2018-04-26T21:58:49.393Z,101199.61
2018-04-26T22:01:29.840Z,101201.67
2018-04-26T22:04:05.878Z,101205.70
2018-04-26T22:06:40.750Z,101200.84
2018-04-26T22:09:15.459Z,101201.12
2018-04-26T22:11:49.957Z,101198.99
2018-04-26T22:14:24.690Z,101193.85
2018-04-26T22:16:59.274Z,101198.37
2018-04-26T22:19:34.063Z,101196.53
2018-04-26T22:22:08.751Z,101190.42
2018-04-26T22:24:43.615Z,101193.79
2018-04-26T22:27:18.302Z,101192.42
2018-04-26T22:29:52.974Z,101204.05
2018-04-26T22:32:27.795Z,101201.48
2018-04-26T22:35:02.392Z,101202.44
2018-04-26T22:37:37.076Z,101197.13
2018-04-26T22:40:11.809Z,101193.05
2018-04-26T22:42:46.301Z,101185.50
2018-04-26T22:45:20.979Z,101186.55
2018-04-26T22:47:55.762Z,101188.76
2018-04-26T22:50:30.454Z,101184.72
2018-04-26T22:53:05.046Z,101186.01
2018-04-26T22:55:39.552Z,101191.67
2018-04-26T22:58:14.235Z,101193.09
2018-04-26T23:00:49.005Z,101192.80
2018-04-26T23:03:23.682Z,101197.14
2018-04-26T23:05:58.294Z,101190.20
2018-04-26T23:08:33.086Z,101194.29
2018-04-26T23:11:07.869Z,101198.17
2018-04-26T23:13:42.578Z,101192.30
2018-04-26T23:16:17.202Z,101196.15
2018-04-26T23:18:51.804Z,101193.34
2018-04-26T23:21:26.482Z,101206.07
2018-04-26T23:24:01.058Z,101207.05
2018-04-26T23:26:35.868Z,101211.62
2018-04-26T23:29:10.438Z,101214.70
2018-04-26T23:31:45.026Z,101215.49
2018-04-26T23:34:19.745Z,101208.12
2018-04-26T23:36:54.329Z,101204.36
2018-04-26T23:39:28.910Z,101214.82
2018-04-26T23:42:03.499Z,101210.06
2018-04-26T23:44:38.019Z,101214.69
2018-04-26T23:47:12.597Z,101214.25
2018-04-26T23:49:47.446Z,101209.89
2018-04-26T23:52:22.028Z,101214.91
2018-04-26T23:54:56.706Z,101213.88
2018-04-26T23:57:31.302Z,101207.40
